Time;durP1;ratioP1;P1;durP2;ratioP2;P2;SDS_P1;SDS_P2;PMS_P1;PMS_P2;Temp;Humidity;BMP_temperature;BMP_pressure;BME280_temperature;BME280_humidity;BME280_pressure;Samples;Min_cycle;Max_cycle;Signal;HPM_P1;HPM_P2
2022/01/23 00:00:43;;;;;;;;;;;;;;;;;;5067043;28;19921;-84
2022/01/23 00:03:18;;;;;;;;;;;;;;;;;;5079718;28;19938;-84
2022/01/23 00:05:54;;;;;;;;;;;;;;;;;;5074624;28;20360;-84
2022/01/23 00:08:21;;;;;;;;;;;;;;;;;;5072808;28;19989;-84
2022/01/23 00:10:50;;;;;;;;;;;;;;;;;;5065551;28;19973;-84
2022/01/23 00:13:32;;;;;;;;;;;;;;;;;;5077173;28;19919;-84
2022/01/23 00:18:47;;;;;;;;;;;;;;;;;;5070345;28;19926;-84
2022/01/23 00:21:15;;;;;;;;;;;;;;;;;;5073814;27;19928;-84
2022/01/23 00:31:56;;;;;;;;;;;;;;;;;;4991523;28;19993;-85
2022/01/23 00:34:22;;;;;;;;;;;;;;;;;;4993008;28;19992;-84
2022/01/23 00:37:03;;;;;;;;;;;;;;;;;;4952974;28;19930;-84
2022/01/23 00:39:28;;;;;;;;;;;;;;;;;;4947141;28;20263;-84
2022/01/23 00:41:55;;;;;;;;;;;;;;;;;;4943865;28;19997;-84
2022/01/23 00:44:22;;;;;;;;;;;;;;;;;;4936544;28;20521;-84
2022/01/23 00:46:51;;;;;;;;;;;;;;;;;;4949841;28;20016;-84
2022/01/23 00:49:27;;;;;;;;;;;;;;;;;;4940041;28;20278;-84
2022/01/23 00:51:55;;;;;;;;;;;;;;;;;;4940778;28;20020;-84
2022/01/23 00:54:26;;;;;;;;;;;;;;;;;;4954400;28;19933;-84
2022/01/23 00:56:55;;;;;;;;;;;;;;;;;;4941623;28;19930;-84
2022/01/23 00:59:31;;;;;;;;;;;;;;;;;;4953232;28;19933;-84
2022/01/23 01:02:14;;;;;;;;;;;;;;;;;;5016044;28;19963;-84
2022/01/23 01:04:42;;;;;;;;;;;;;;;;;;4994144;28;19929;-84
2022/01/23 01:07:09;;;;;;;;;;;;;;;;;;5001557;28;20015;-84
2022/01/23 01:09:35;;;;;;;;;;;;;;;;;;5049761;28;20014;-84
2022/01/23 01:12:07;;;;;;;;;;;;;;;;;;5055033;28;20278;-84
2022/01/23 01:14:55;;;;;;;;;;;;;;;;;;5049236;28;20014;-84
2022/01/23 01:34:08;;;;;;;;;;;;;;;;;;5051416;28;19935;-84
2022/01/23 01:39:13;;;;;;;;;;;;;;;;;;5054722;28;19920;-84
2022/01/23 01:41:39;;;;;;;;;;;;;;;;;;5070307;28;19946;-83
2022/01/23 01:44:05;;;;;;;;;;;;;;;;;;5057199;28;20283;-84
2022/01/23 01:46:31;;;;;;;;;;;;;;;;;;5047565;28;19920;-84
2022/01/23 01:49:13;;;;;;;;;;;;;;;;;;5049589;28;20683;-84
2022/01/23 01:51:39;;;;;;;;;;;;;;;;;;5011896;28;19931;-83
2022/01/23 01:54:11;;;;;;;;;;;;;;;;;;5035428;28;20374;-83
2022/01/23 02:10:32;;;;;;;;;;;;;;;;;;5046200;28;19924;-84
2022/01/23 02:57:22;;;;;;;;;;;;;;;;;;5072011;28;20010;-84
2022/01/23 02:59:51;;;;;;;;;;;;;;;;;;5073471;28;19978;-84
2022/01/23 03:05:02;;;;;;;;;;;;;;;;;;5092543;28;19935;-84
2022/01/23 03:10:22;;;;;;;;;;;;;;;;;;5073136;28;19924;-84
2022/01/23 03:24:22;;;;;;;;;;;;;;;;;;5076242;28;20393;-84
2022/01/23 03:27:26;;;;;;;;;;;;;;;;;;5095950;28;20337;-84
2022/01/23 03:29:57;;;;;;;;;;;;;;;;;;5095912;28;19946;-84
2022/01/23 03:35:11;;;;;;;;;;;;;;;;;;5096539;27;19928;-84
2022/01/23 03:37:38;;;;;;;;;;;;;;;;;;5091826;27;19931;-83
2022/01/23 03:40:07;;;;;;;;;;;;;;;;;;5059256;28;19928;-84
2022/01/23 03:42:36;;;;;;;;;;;;;;;;;;5089550;28;19920;-84
2022/01/23 03:47:37;;;;;;;;;;;;;;;;;;5070028;28;20053;-84
2022/01/23 03:50:03;;;;;;;;;;;;;;;;;;5091157;28;19923;-84
2022/01/23 03:52:29;;;;;;;;;;;;;;;;;;5091081;28;19920;-84
2022/01/23 03:54:55;;;;;;;;;;;;;;;;;;5091308;28;19927;-84
2022/01/23 03:57:21;;;;;;;;;;;;;;;;;;5092362;28;19939;-84
2022/01/23 03:59:47;;;;;;;;;;;;;;;;;;5067577;28;19924;-84
2022/01/23 04:02:14;;;;;;;;;;;;;;;;;;5076164;28;19919;-84
2022/01/23 04:04:44;;;;;;;;;;;;;;;;;;5088851;28;19940;-84
2022/01/23 04:07:11;;;;;;;;;;;;;;;;;;5070035;28;19935;-84
2022/01/23 04:09:39;;;;;;;;;;;;;;;;;;5070626;28;19927;-84
2022/01/23 04:12:08;;;;;;;;;;;;;;;;;;5072769;28;19931;-84
2022/01/23 04:14:45;;;;;;;;;;;;;;;;;;5071005;28;20462;-84
2022/01/23 04:33:53;;;;;;;;;;;;;;;;;;5090108;28;19920;-84
2022/01/23 05:01:49;;;;;;;;;;;;;;;;;;5088025;28;20750;-84
2022/01/23 05:06:28;;;;;;;;;;;;;;;;;;5094871;28;19928;-84
2022/01/23 05:08:54;;;;;;;;;;;;;;;;;;5093817;28;19928;-84
2022/01/23 05:11:36;;;;;;;;;;;;;;;;;;5029944;28;20563;-84
2022/01/23 05:14:03;;;;;;;;;;;;;;;;;;5052650;28;20173;-84
2022/01/23 05:16:31;;;;;;;;;;;;;;;;;;5039848;28;19925;-84
2022/01/23 05:19:01;;;;;;;;;;;;;;;;;;5053559;28;19921;-84
2022/01/23 05:23:54;;;;;;;;;;;;;;;;;;5036847;28;19928;-84
2022/01/23 05:26:20;;;;;;;;;;;;;;;;;;5036423;28;19945;-84
2022/01/23 05:28:46;;;;;;;;;;;;;;;;;;5029016;28;19932;-84
2022/01/23 05:31:12;;;;;;;;;;;;;;;;;;5032077;28;19924;-84
2022/01/23 05:33:38;;;;;;;;;;;;;;;;;;5030984;28;20441;-83
2022/01/23 05:36:05;;;;;;;;;;;;;;;;;;5018910;28;19928;-84
2022/01/23 05:38:32;;;;;;;;;;;;;;;;;;5031042;28;19925;-84
2022/01/23 05:41:01;;;;;;;;;;;;;;;;;;5049793;28;19924;-84
2022/01/23 05:43:42;;;;;;;;;;;;;;;;;;5084879;28;19946;-84
2022/01/23 05:46:08;;;;;;;;;;;;;;;;;;5093730;27;19920;-84
2022/01/23 05:48:34;;;;;;;;;;;;;;;;;;5086746;28;19932;-84
2022/01/23 05:51:00;;;;;;;;;;;;;;;;;;5053975;28;19977;-84
2022/01/23 05:53:27;;;;;;;;;;;;;;;;;;5090429;27;19966;-84
2022/01/23 05:55:53;;;;;;;;;;;;;;;;;;5074416;28;20709;-84
2022/01/23 05:58:20;;;;;;;;;;;;;;;;;;5072713;28;20249;-84
2022/01/23 06:00:46;;;;;;;;;;;;;;;;;;5084269;28;20018;-84
2022/01/23 06:03:12;;;;;;;;;;;;;;;;;;5072509;28;20011;-84
2022/01/23 06:05:38;;;;;;;;;;;;;;;;;;5070155;28;19928;-84
2022/01/23 06:08:04;;;;;;;;;;;;;;;;;;5073461;28;19989;-84
2022/01/23 06:10:46;;;;;;;;;;;;;;;;;;5061663;28;19982;-84
2022/01/23 06:13:12;;;;;;;;;;;;;;;;;;5068287;28;20044;-84
2022/01/23 06:15:39;;;;;;;;;;;;;;;;;;5064281;28;20367;-83
2022/01/23 06:18:05;;;;;;;;;;;;;;;;;;5051233;28;19932;-84
2022/01/23 06:20:33;;;;;;;;;;;;;;;;;;5068978;28;19928;-84
2022/01/23 06:22:59;;;;;;;;;;;;;;;;;;5070327;28;20038;-84
2022/01/23 06:25:32;;;;;;;;;;;;;;;;;;5063203;28;19928;-84
2022/01/23 06:27:58;;;;;;;;;;;;;;;;;;5067350;28;19928;-84
2022/01/23 06:30:25;;;;;;;;;;;;;;;;;;5068344;28;19920;-84
2022/01/23 06:32:51;;;;;;;;;;;;;;;;;;5054532;28;19925;-84
2022/01/23 06:35:17;;;;;;;;;;;;;;;;;;5069289;28;19991;-84
2022/01/23 06:37:43;;;;;;;;;;;;;;;;;;5066587;28;21597;-84
2022/01/23 06:40:09;;;;;;;;;;;;;;;;;;5054839;28;19928;-84
2022/01/23 06:42:35;;;;;;;;;;;;;;;;;;5062200;28;20371;-83
2022/01/23 06:45:01;;;;;;;;;;;;;;;;;;5071535;28;20053;-84
2022/01/23 06:47:28;;;;;;;;;;;;;;;;;;5060313;28;19924;-83
2022/01/23 06:49:54;;;;;;;;;;;;;;;;;;5069414;28;19929;-83
2022/01/23 06:52:20;;;;;;;;;;;;;;;;;;5056902;28;19924;-84
2022/01/23 06:54:46;;;;;;;;;;;;;;;;;;5066368;28;19956;-84
2022/01/23 06:57:12;;;;;;;;;;;;;;;;;;5069995;28;20009;-85
2022/01/23 06:59:38;;;;;;;;;;;;;;;;;;5062960;28;19974;-84
2022/01/23 07:02:05;;;;;;;;;;;;;;;;;;5066889;28;19932;-83
2022/01/23 07:04:31;;;;;;;;;;;;;;;;;;5065454;28;19977;-84
2022/01/23 07:06:58;;;;;;;;;;;;;;;;;;5048624;28;19927;-84
2022/01/23 07:09:24;;;;;;;;;;;;;;;;;;5069878;28;19920;-84
2022/01/23 07:11:50;;;;;;;;;;;;;;;;;;5072537;28;19931;-83
2022/01/23 07:14:16;;;;;;;;;;;;;;;;;;5053603;28;21550;-84
2022/01/23 07:16:43;;;;;;;;;;;;;;;;;;5068297;28;23622;-85
2022/01/23 07:19:09;;;;;;;;;;;;;;;;;;5069008;28;20297;-85
2022/01/23 07:21:44;;;;;;;;;;;;;;;;;;5064612;28;19928;-85
2022/01/23 07:24:10;;;;;;;;;;;;;;;;;;5072696;28;20335;-85
2022/01/23 07:26:38;;;;;;;;;;;;;;;;;;5064569;28;20387;-84
2022/01/23 07:29:05;;;;;;;;;;;;;;;;;;5070079;28;19917;-83
2022/01/23 07:34:00;;;;;;;;;;;;;;;;;;5069575;28;20354;-83
2022/01/23 07:36:26;;;;;;;;;;;;;;;;;;5067724;28;20362;-84
2022/01/23 07:38:52;;;;;;;;;;;;;;;;;;5058783;28;19931;-84
2022/01/23 07:41:18;;;;;;;;;;;;;;;;;;5054963;28;20044;-84
2022/01/23 07:43:45;;;;;;;;;;;;;;;;;;5068291;28;20077;-83
2022/01/23 07:46:13;;;;;;;;;;;;;;;;;;5075378;28;19924;-83
2022/01/23 07:48:39;;;;;;;;;;;;;;;;;;5066086;28;19950;-84
2022/01/23 07:51:06;;;;;;;;;;;;;;;;;;5075989;28;20328;-85
2022/01/23 07:53:47;;;;;;;;;;;;;;;;;;5069172;28;19928;-84
2022/01/23 07:56:13;;;;;;;;;;;;;;;;;;5071282;28;19930;-84
2022/01/23 07:58:39;;;;;;;;;;;;;;;;;;5070839;28;20337;-84
2022/01/23 08:01:05;;;;;;;;;;;;;;;;;;5073245;28;20011;-84
2022/01/23 08:03:33;;;;;;;;;;;;;;;;;;5064780;28;20036;-84
2022/01/23 08:06:00;;;;;;;;;;;;;;;;;;5072527;28;20558;-84
2022/01/23 08:08:30;;;;;;;;;;;;;;;;;;5086896;28;19924;-84
2022/01/23 08:10:56;;;;;;;;;;;;;;;;;;5072855;28;20286;-84
2022/01/23 08:13:24;;;;;;;;;;;;;;;;;;5071679;28;19920;-84
2022/01/23 08:15:53;;;;;;;;;;;;;;;;;;5071300;28;20011;-84
2022/01/23 08:18:20;;;;;;;;;;;;;;;;;;5069042;28;19927;-84
2022/01/23 08:20:46;;;;;;;;;;;;;;;;;;5069549;28;19920;-83
2022/01/23 08:23:13;;;;;;;;;;;;;;;;;;5059261;28;19928;-84
2022/01/23 08:25:39;;;;;;;;;;;;;;;;;;5071572;28;19924;-84
2022/01/23 08:28:09;;;;;;;;;;;;;;;;;;5070553;28;20275;-84
2022/01/23 08:30:35;;;;;;;;;;;;;;;;;;5065997;28;19981;-84
2022/01/23 08:33:02;;;;;;;;;;;;;;;;;;5069442;28;20294;-84
2022/01/23 08:35:28;;;;;;;;;;;;;;;;;;5068146;28;19925;-84
2022/01/23 08:37:55;;;;;;;;;;;;;;;;;;5071562;28;19924;-84
2022/01/23 08:40:47;;;;;;;;;;;;;;;;;;5058612;28;19932;-83
2022/01/23 08:43:16;;;;;;;;;;;;;;;;;;5076967;28;19928;-84
2022/01/23 08:45:42;;;;;;;;;;;;;;;;;;5050124;28;20717;-84
2022/01/23 08:48:09;;;;;;;;;;;;;;;;;;5073939;28;19928;-84
2022/01/23 08:50:35;;;;;;;;;;;;;;;;;;5069318;28;19931;-84
2022/01/23 08:53:01;;;;;;;;;;;;;;;;;;5075687;28;20015;-84
2022/01/23 08:55:27;;;;;;;;;;;;;;;;;;5070073;28;20476;-85
2022/01/23 08:57:53;;;;;;;;;;;;;;;;;;5053224;28;19920;-84
2022/01/23 09:00:21;;;;;;;;;;;;;;;;;;5075513;28;19930;-84
2022/01/23 09:02:47;;;;;;;;;;;;;;;;;;5052412;28;19928;-84
2022/01/23 09:05:13;;;;;;;;;;;;;;;;;;5068805;28;19932;-84
2022/01/23 09:07:39;;;;;;;;;;;;;;;;;;5068593;28;19920;-83
2022/01/23 09:10:05;;;;;;;;;;;;;;;;;;5070844;28;19935;-83
2022/01/23 09:15:05;;;;;;;;;;;;;;;;;;5071752;28;19938;-84
2022/01/23 09:17:32;;;;;;;;;;;;;;;;;;5068955;28;19924;-84
2022/01/23 09:19:58;;;;;;;;;;;;;;;;;;5071971;28;20044;-84
2022/01/23 09:22:29;;;;;;;;;;;;;;;;;;5067010;28;20061;-83
2022/01/23 09:25:07;;;;;;;;;;;;;;;;;;5072708;28;20263;-83
2022/01/23 09:27:38;;;;;;;;;;;;;;;;;;5070987;28;19931;-84
2022/01/23 09:30:16;;;;;;;;;;;;;;;;;;5071248;28;20240;-84
2022/01/23 09:32:43;;;;;;;;;;;;;;;;;;5051060;28;19954;-83
2022/01/23 09:35:09;;;;;;;;;;;;;;;;;;5072276;28;19924;-85
2022/01/23 09:37:35;;;;;;;;;;;;;;;;;;5049704;28;19931;-84
2022/01/23 09:40:01;;;;;;;;;;;;;;;;;;5072561;28;19924;-84
2022/01/23 09:42:28;;;;;;;;;;;;;;;;;;5067892;28;20322;-83
2022/01/23 09:44:55;;;;;;;;;;;;;;;;;;5071273;28;19928;-83
2022/01/23 09:47:21;;;;;;;;;;;;;;;;;;5056606;28;19924;-83
2022/01/23 09:49:54;;;;;;;;;;;;;;;;;;5073739;28;19935;-83
2022/01/23 09:52:21;;;;;;;;;;;;;;;;;;5073158;28;20290;-84
2022/01/23 09:54:56;;;;;;;;;;;;;;;;;;5052361;28;19935;-84
2022/01/23 09:57:25;;;;;;;;;;;;;;;;;;5070867;28;20309;-83
2022/01/23 09:59:52;;;;;;;;;;;;;;;;;;5073215;28;19924;-84
2022/01/23 10:02:18;;;;;;;;;;;;;;;;;;5067960;28;19971;-82
2022/01/23 10:04:44;;;;;;;;;;;;;;;;;;5062008;28;20022;-82
2022/01/23 10:07:11;;;;;;;;;;;;;;;;;;5051545;28;19932;-83
2022/01/23 10:09:38;;;;;;;;;;;;;;;;;;5065422;28;20014;-83
2022/01/23 10:12:04;;;;;;;;;;;;;;;;;;5054857;28;19946;-83
2022/01/23 10:14:30;;;;;;;;;;;;;;;;;;5067015;28;20346;-83
2022/01/23 10:16:56;;;;;;;;;;;;;;;;;;5069229;28;19947;-83
2022/01/23 10:19:22;;;;;;;;;;;;;;;;;;5054843;28;20009;-84
2022/01/23 10:21:49;;;;;;;;;;;;;;;;;;5062308;28;19970;-84
2022/01/23 10:24:16;;;;;;;;;;;;;;;;;;5053802;28;19921;-84
2022/01/23 10:26:53;;;;;;;;;;;;;;;;;;5082894;28;20068;-84
2022/01/23 10:29:20;;;;;;;;;;;;;;;;;;5067166;28;19923;-84
2022/01/23 10:31:48;;;;;;;;;;;;;;;;;;5046009;28;19920;-84
2022/01/23 10:34:14;;;;;;;;;;;;;;;;;;5053398;28;19986;-84
2022/01/23 10:36:40;;;;;;;;;;;;;;;;;;5066311;28;20004;-84
2022/01/23 10:39:06;;;;;;;;;;;;;;;;;;5074840;28;19920;-83
2022/01/23 10:41:48;;;;;;;;;;;;;;;;;;5063106;28;19924;-84
2022/01/23 10:49:46;;;;;;;;;;;;;;;;;;5063795;28;19928;-85
2022/01/23 10:52:38;;;;;;;;;;;;;;;;;;5066787;28;19920;-84
2022/01/23 10:55:06;;;;;;;;;;;;;;;;;;5071482;28;20287;-84
2022/01/23 10:57:32;;;;;;;;;;;;;;;;;;5050263;28;19989;-84
2022/01/23 11:00:02;;;;;;;;;;;;;;;;;;5056020;28;19924;-83
2022/01/23 11:02:32;;;;;;;;;;;;;;;;;;5044910;28;19932;-84
2022/01/23 11:04:58;;;;;;;;;;;;;;;;;;5047435;28;20024;-84
2022/01/23 11:07:24;;;;;;;;;;;;;;;;;;5049041;28;20640;-84
2022/01/23 11:09:51;;;;;;;;;;;;;;;;;;5068726;28;20311;-85
2022/01/23 11:12:43;;;;;;;;;;;;;;;;;;5058848;28;19920;-84
2022/01/23 11:17:55;;;;;;;;;;;;;;;;;;5072315;28;20000;-84
2022/01/23 11:20:22;;;;;;;;;;;;;;;;;;5071380;28;19935;-87
2022/01/23 11:22:48;;;;;;;;;;;;;;;;;;5070036;28;19920;-88
2022/01/23 11:25:29;;;;;;;;;;;;;;;;;;5071677;28;20328;-88
2022/01/23 11:27:56;;;;;;;;;;;;;;;;;;5074664;28;20431;-89
2022/01/23 11:30:40;;;;;;;;;;;;;;;;;;5070189;28;19928;-86
2022/01/23 11:33:08;;;;;;;;;;;;;;;;;;5072892;28;20116;-88
2022/01/23 11:35:35;;;;;;;;;;;;;;;;;;5067823;28;20001;-87
2022/01/23 11:38:19;;;;;;;;;;;;;;;;;;5054368;28;20344;-87
2022/01/23 11:55:04;;;;;;;;;;;;;;;;;;4993965;28;19925;-85
2022/01/23 11:57:31;;;;;;;;;;;;;;;;;;4957801;28;19929;-83
2022/01/23 11:59:57;;;;;;;;;;;;;;;;;;4984898;28;20000;-83
2022/01/23 12:02:30;;;;;;;;;;;;;;;;;;4977788;28;20115;-84
2022/01/23 12:05:22;;;;;;;;;;;;;;;;;;4974561;28;20400;-86
2022/01/23 12:07:58;;;;;;;;;;;;;;;;;;4974045;28;20416;-87
2022/01/23 12:10:52;;;;;;;;;;;;;;;;;;4991081;28;19948;-84
2022/01/23 12:13:23;;;;;;;;;;;;;;;;;;4995006;28;19963;-83
2022/01/23 12:18:44;;;;;;;;;;;;;;;;;;5007549;28;19929;-86
2022/01/23 12:21:10;;;;;;;;;;;;;;;;;;4994416;28;19929;-83
2022/01/23 12:23:36;;;;;;;;;;;;;;;;;;5046685;28;19938;-84
2022/01/23 12:26:02;;;;;;;;;;;;;;;;;;5080610;28;19924;-85
2022/01/23 12:28:33;;;;;;;;;;;;;;;;;;5055572;28;19963;-84
2022/01/23 12:31:11;;;;;;;;;;;;;;;;;;5080810;28;19931;-85
2022/01/23 12:33:37;;;;;;;;;;;;;;;;;;5043499;28;19924;-85
2022/01/23 12:36:04;;;;;;;;;;;;;;;;;;5035248;28;19934;-84
2022/01/23 12:38:31;;;;;;;;;;;;;;;;;;5073697;28;19920;-84
2022/01/23 12:40:58;;;;;;;;;;;;;;;;;;5080214;28;19939;-83
2022/01/23 12:43:28;;;;;;;;;;;;;;;;;;5053419;28;20374;-85
2022/01/23 12:45:55;;;;;;;;;;;;;;;;;;5040393;28;19940;-86
2022/01/23 12:48:23;;;;;;;;;;;;;;;;;;5074923;28;19924;-87
2022/01/23 12:50:58;;;;;;;;;;;;;;;;;;5056197;28;19920;-83
2022/01/23 12:53:26;;;;;;;;;;;;;;;;;;5055688;28;19939;-83
2022/01/23 12:55:52;;;;;;;;;;;;;;;;;;5063557;28;20019;-83
2022/01/23 12:58:19;;;;;;;;;;;;;;;;;;5079860;28;20398;-83
2022/01/23 13:00:46;;;;;;;;;;;;;;;;;;5072703;28;19955;-83
2022/01/23 13:03:12;;;;;;;;;;;;;;;;;;5077949;28;19947;-83
2022/01/23 13:05:39;;;;;;;;;;;;;;;;;;5066170;28;19981;-83
2022/01/23 13:08:10;;;;;;;;;;;;;;;;;;5095113;28;20290;-82
2022/01/23 13:19:14;;;;;;;;;;;;;;;;;;5072876;28;19930;-83
2022/01/23 13:27:45;;;;;;;;;;;;;;;;;;5033504;28;19928;-84
2022/01/23 13:30:13;;;;;;;;;;;;;;;;;;5089071;27;19975;-82
2022/01/23 13:32:49;;;;;;;;;;;;;;;;;;5013777;28;20072;-82
2022/01/23 13:35:16;;;;;;;;;;;;;;;;;;5038204;28;20284;-81
2022/01/23 13:37:43;;;;;;;;;;;;;;;;;;5019446;28;19925;-82
2022/01/23 13:40:12;;;;;;;;;;;;;;;;;;5038894;28;20427;-81
2022/01/23 13:42:49;;;;;;;;;;;;;;;;;;5021391;28;19960;-81
2022/01/23 13:53:35;;;;;;;;;;;;;;;;;;5041066;28;19921;-82
2022/01/23 13:59:01;;;;;;;;;;;;;;;;;;5017986;28;19925;-81
2022/01/23 14:03:54;;;;;;;;;;;;;;;;;;5035417;28;19931;-82
2022/01/23 14:06:35;;;;;;;;;;;;;;;;;;4997489;28;19926;-81
2022/01/23 14:09:01;;;;;;;;;;;;;;;;;;5000241;28;19925;-81
2022/01/23 14:11:28;;;;;;;;;;;;;;;;;;4996540;28;19929;-81
2022/01/23 14:13:55;;;;;;;;;;;;;;;;;;4982346;28;19976;-81
2022/01/23 14:16:22;;;;;;;;;;;;;;;;;;4997283;28;19921;-81
2022/01/23 14:18:49;;;;;;;;;;;;;;;;;;4987399;28;19989;-80
2022/01/23 14:21:16;;;;;;;;;;;;;;;;;;4987011;28;19933;-82
2022/01/23 14:23:42;;;;;;;;;;;;;;;;;;4995716;28;19927;-80
2022/01/23 14:26:09;;;;;;;;;;;;;;;;;;5045242;28;20015;-80
2022/01/23 14:28:36;;;;;;;;;;;;;;;;;;5043793;28;19932;-80
2022/01/23 14:31:07;;;;;;;;;;;;;;;;;;5046049;28;20374;-80
2022/01/23 14:33:50;;;;;;;;;;;;;;;;;;5043657;28;20106;-82
2022/01/23 14:36:16;;;;;;;;;;;;;;;;;;5047704;28;19930;-82
2022/01/23 14:38:42;;;;;;;;;;;;;;;;;;5072506;28;19928;-81
2022/01/23 14:41:12;;;;;;;;;;;;;;;;;;5097159;28;19928;-82
2022/01/23 14:43:39;;;;;;;;;;;;;;;;;;5054398;28;19988;-82
2022/01/23 14:46:06;;;;;;;;;;;;;;;;;;5079468;28;19939;-82
2022/01/23 14:48:37;;;;;;;;;;;;;;;;;;5094610;27;20632;-82
2022/01/23 14:51:05;;;;;;;;;;;;;;;;;;5096640;28;19988;-81
2022/01/23 14:53:46;;;;;;;;;;;;;;;;;;5096049;28;19935;-82
2022/01/23 14:56:14;;;;;;;;;;;;;;;;;;5065651;28;19985;-82
2022/01/23 14:58:42;;;;;;;;;;;;;;;;;;5074445;28;19946;-81
2022/01/23 15:01:10;;;;;;;;;;;;;;;;;;5093105;27;21156;-82
2022/01/23 15:03:39;;;;;;;;;;;;;;;;;;5092765;28;19926;-82
2022/01/23 15:06:06;;;;;;;;;;;;;;;;;;5063473;28;19928;-82
2022/01/23 15:08:32;;;;;;;;;;;;;;;;;;5076835;28;19935;-82
2022/01/23 15:10:59;;;;;;;;;;;;;;;;;;5075593;28;19967;-81
2022/01/23 15:13:36;;;;;;;;;;;;;;;;;;5071647;28;20004;-82
2022/01/23 15:16:03;;;;;;;;;;;;;;;;;;5075358;28;20327;-82
2022/01/23 15:18:29;;;;;;;;;;;;;;;;;;5068497;28;19920;-82
2022/01/23 15:20:56;;;;;;;;;;;;;;;;;;5071443;28;19947;-82
2022/01/23 15:23:22;;;;;;;;;;;;;;;;;;5057118;28;19947;-83
2022/01/23 15:25:48;;;;;;;;;;;;;;;;;;5069262;28;19942;-82
2022/01/23 15:28:15;;;;;;;;;;;;;;;;;;5076058;28;20553;-82
2022/01/23 15:30:41;;;;;;;;;;;;;;;;;;5073307;28;19925;-82
2022/01/23 15:33:08;;;;;;;;;;;;;;;;;;5074247;28;20484;-83
2022/01/23 15:35:36;;;;;;;;;;;;;;;;;;5054142;28;20015;-82
2022/01/23 15:38:04;;;;;;;;;;;;;;;;;;5061301;28;20334;-82
2022/01/23 15:40:31;;;;;;;;;;;;;;;;;;5071902;28;19936;-82
2022/01/23 15:42:57;;;;;;;;;;;;;;;;;;5054786;28;19928;-82
2022/01/23 15:45:26;;;;;;;;;;;;;;;;;;5070942;28;19925;-82
2022/01/23 15:47:52;;;;;;;;;;;;;;;;;;5076420;28;20090;-82
2022/01/23 15:50:19;;;;;;;;;;;;;;;;;;5060604;28;19939;-82
2022/01/23 15:52:46;;;;;;;;;;;;;;;;;;5069424;28;20007;-82
2022/01/23 15:55:12;;;;;;;;;;;;;;;;;;5056360;28;19924;-82
2022/01/23 15:57:38;;;;;;;;;;;;;;;;;;5067687;28;20402;-82
2022/01/23 16:00:04;;;;;;;;;;;;;;;;;;5068961;28;19928;-82
2022/01/23 16:02:30;;;;;;;;;;;;;;;;;;5071679;28;19924;-81
2022/01/23 16:04:57;;;;;;;;;;;;;;;;;;5073478;28;20298;-83
2022/01/23 16:07:24;;;;;;;;;;;;;;;;;;5069390;28;19920;-82
2022/01/23 16:09:59;;;;;;;;;;;;;;;;;;5070652;28;19989;-81
2022/01/23 16:12:26;;;;;;;;;;;;;;;;;;5066366;28;20924;-81
2022/01/23 16:15:07;;;;;;;;;;;;;;;;;;5070956;28;20340;-81
2022/01/23 16:17:33;;;;;;;;;;;;;;;;;;5063057;28;19931;-82
2022/01/23 16:20:00;;;;;;;;;;;;;;;;;;5052547;28;19972;-82
2022/01/23 16:22:28;;;;;;;;;;;;;;;;;;5061907;28;19920;-82
2022/01/23 16:24:54;;;;;;;;;;;;;;;;;;5068055;28;19978;-81
2022/01/23 16:27:20;;;;;;;;;;;;;;;;;;5067253;28;19998;-81
2022/01/23 16:29:45;;;;;;;;;;;;;;;;;;5068776;28;19928;-81
2022/01/23 16:32:13;;;;;;;;;;;;;;;;;;5069506;28;19928;-82
2022/01/23 16:34:40;;;;;;;;;;;;;;;;;;5056125;28;19920;-81
2022/01/23 16:37:10;;;;;;;;;;;;;;;;;;5069109;28;20460;-79
2022/01/23 16:39:35;;;;;;;;;;;;;;;;;;5066921;28;21914;-80
2022/01/23 16:42:02;;;;;;;;;;;;;;;;;;5067532;28;19928;-80
2022/01/23 16:44:28;;;;;;;;;;;;;;;;;;5063106;28;19935;-81
2022/01/23 16:46:56;;;;;;;;;;;;;;;;;;5068467;28;20282;-81
2022/01/23 16:49:26;;;;;;;;;;;;;;;;;;5074332;28;19981;-80
2022/01/23 16:51:53;;;;;;;;;;;;;;;;;;5053922;28;19999;-80
2022/01/23 16:54:18;;;;;;;;;;;;;;;;;;5073263;28;20509;-80
2022/01/23 16:56:44;;;;;;;;;;;;;;;;;;5049975;28;20700;-81
2022/01/23 16:59:10;;;;;;;;;;;;;;;;;;5072559;28;19931;-82
2022/01/23 17:01:38;;;;;;;;;;;;;;;;;;5068150;28;19927;-80
2022/01/23 17:04:04;;;;;;;;;;;;;;;;;;5069519;28;19924;-82
2022/01/23 17:06:31;;;;;;;;;;;;;;;;;;5069900;28;20295;-81
2022/01/23 17:08:59;;;;;;;;;;;;;;;;;;5074107;28;19971;-80
2022/01/23 17:11:25;;;;;;;;;;;;;;;;;;5062808;28;20409;-81
2022/01/23 17:13:52;;;;;;;;;;;;;;;;;;5063852;28;19932;-81
2022/01/23 17:16:18;;;;;;;;;;;;;;;;;;5069158;28;19951;-81
2022/01/23 17:18:44;;;;;;;;;;;;;;;;;;5049049;28;19935;-81
2022/01/23 17:21:11;;;;;;;;;;;;;;;;;;5073727;28;19920;-81
2022/01/23 17:23:36;;;;;;;;;;;;;;;;;;5049421;28;20054;-81
2022/01/23 17:26:02;;;;;;;;;;;;;;;;;;5051273;28;20062;-81
2022/01/23 17:28:29;;;;;;;;;;;;;;;;;;5065537;28;19924;-82
2022/01/23 17:31:04;;;;;;;;;;;;;;;;;;5071333;28;20500;-82
2022/01/23 17:33:30;;;;;;;;;;;;;;;;;;5066825;28;19935;-81
2022/01/23 17:35:56;;;;;;;;;;;;;;;;;;5069476;28;19931;-81
2022/01/23 17:38:22;;;;;;;;;;;;;;;;;;5071909;28;19920;-81
2022/01/23 17:40:54;;;;;;;;;;;;;;;;;;5068226;28;19923;-82
2022/01/23 17:43:20;;;;;;;;;;;;;;;;;;5069190;28;19924;-81
2022/01/23 17:51:16;;;;;;;;;;;;;;;;;;5071315;28;19924;-81
2022/01/23 17:53:46;;;;;;;;;;;;;;;;;;5065353;28;19985;-81
2022/01/23 17:56:12;;;;;;;;;;;;;;;;;;5056018;28;19928;-81
2022/01/23 17:58:38;;;;;;;;;;;;;;;;;;5065214;28;19978;-81
2022/01/23 18:01:06;;;;;;;;;;;;;;;;;;5050723;28;19959;-81
2022/01/23 18:03:33;;;;;;;;;;;;;;;;;;5051026;28;19934;-83
2022/01/23 18:06:01;;;;;;;;;;;;;;;;;;5068202;28;20406;-82
2022/01/23 18:08:28;;;;;;;;;;;;;;;;;;5055393;28;19928;-81
2022/01/23 18:10:54;;;;;;;;;;;;;;;;;;5068981;28;19931;-82
2022/01/23 18:13:23;;;;;;;;;;;;;;;;;;5071292;28;20267;-81
2022/01/23 18:15:49;;;;;;;;;;;;;;;;;;5067837;28;20449;-82
2022/01/23 18:18:16;;;;;;;;;;;;;;;;;;5071875;28;20390;-82
2022/01/23 18:20:42;;;;;;;;;;;;;;;;;;5064388;28;19932;-82
2022/01/23 18:23:09;;;;;;;;;;;;;;;;;;5068827;28;19963;-82
2022/01/23 18:25:41;;;;;;;;;;;;;;;;;;5065769;28;19932;-81
2022/01/23 18:28:07;;;;;;;;;;;;;;;;;;5071735;28;20278;-82
2022/01/23 18:30:34;;;;;;;;;;;;;;;;;;5065291;28;20094;-82
2022/01/23 18:33:00;;;;;;;;;;;;;;;;;;5073427;28;19931;-82
2022/01/23 18:35:26;;;;;;;;;;;;;;;;;;5067045;28;19928;-82
2022/01/23 18:37:52;;;;;;;;;;;;;;;;;;5069242;28;19973;-81
2022/01/23 18:40:18;;;;;;;;;;;;;;;;;;5076100;28;20435;-81
2022/01/23 18:42:44;;;;;;;;;;;;;;;;;;5052073;28;19928;-81
2022/01/23 18:45:12;;;;;;;;;;;;;;;;;;5069237;28;19970;-82
2022/01/23 18:47:38;;;;;;;;;;;;;;;;;;5062883;28;19974;-82
2022/01/23 18:50:04;;;;;;;;;;;;;;;;;;5069789;28;19928;-82
2022/01/23 18:52:32;;;;;;;;;;;;;;;;;;5065580;28;19971;-83
2022/01/23 18:55:04;;;;;;;;;;;;;;;;;;5067720;28;19928;-82
2022/01/23 18:57:42;;;;;;;;;;;;;;;;;;5068743;28;20010;-81
2022/01/23 19:00:17;;;;;;;;;;;;;;;;;;5067238;28;19924;-83
2022/01/23 19:02:48;;;;;;;;;;;;;;;;;;5071223;28;22962;-83
2022/01/23 19:05:21;;;;;;;;;;;;;;;;;;5070849;28;20287;-81
2022/01/23 19:07:57;;;;;;;;;;;;;;;;;;5067425;28;19930;-82
2022/01/23 19:10:33;;;;;;;;;;;;;;;;;;5074987;28;20038;-82
2022/01/23 19:13:10;;;;;;;;;;;;;;;;;;5059708;28;20325;-82
2022/01/23 19:15:38;;;;;;;;;;;;;;;;;;5063562;28;20363;-82
2022/01/23 19:18:04;;;;;;;;;;;;;;;;;;5068476;28;20359;-82
2022/01/23 19:20:33;;;;;;;;;;;;;;;;;;5074120;28;19983;-81
2022/01/23 19:23:01;;;;;;;;;;;;;;;;;;5067636;28;19924;-82
2022/01/23 19:25:28;;;;;;;;;;;;;;;;;;5068211;28;19932;-82
2022/01/23 19:27:58;;;;;;;;;;;;;;;;;;5068094;28;19928;-82
2022/01/23 19:30:25;;;;;;;;;;;;;;;;;;5062059;28;19928;-81
2022/01/23 19:32:52;;;;;;;;;;;;;;;;;;5071410;28;19930;-82
2022/01/23 19:35:21;;;;;;;;;;;;;;;;;;5071149;28;19924;-82
2022/01/23 19:37:53;;;;;;;;;;;;;;;;;;5071346;28;19927;-82
2022/01/23 19:40:26;;;;;;;;;;;;;;;;;;5071681;28;19924;-81
2022/01/23 19:45:21;;;;;;;;;;;;;;;;;;5072943;28;19933;-81
2022/01/23 19:47:58;;;;;;;;;;;;;;;;;;5068861;28;19924;-81
2022/01/23 19:50:24;;;;;;;;;;;;;;;;;;5070931;28;20242;-81
2022/01/23 19:52:51;;;;;;;;;;;;;;;;;;5072788;28;19921;-81
2022/01/23 19:55:18;;;;;;;;;;;;;;;;;;5073046;28;19925;-81
2022/01/23 19:57:45;;;;;;;;;;;;;;;;;;5067112;28;19928;-81
2022/01/23 20:00:18;;;;;;;;;;;;;;;;;;5071956;28;20358;-81
2022/01/23 20:02:56;;;;;;;;;;;;;;;;;;5072786;28;19927;-81
2022/01/23 20:05:22;;;;;;;;;;;;;;;;;;5072508;28;19991;-82
2022/01/23 20:07:49;;;;;;;;;;;;;;;;;;5072567;28;20388;-82
2022/01/23 20:10:53;;;;;;;;;;;;;;;;;;5073768;28;20263;-82
2022/01/23 20:13:20;;;;;;;;;;;;;;;;;;5073111;28;19927;-83
2022/01/23 20:15:56;;;;;;;;;;;;;;;;;;5075291;28;19934;-82
2022/01/23 20:18:22;;;;;;;;;;;;;;;;;;5061203;28;19920;-81
2022/01/23 20:20:59;;;;;;;;;;;;;;;;;;5096447;27;19928;-82
2022/01/23 20:23:26;;;;;;;;;;;;;;;;;;5068568;28;19924;-81
2022/01/23 20:25:54;;;;;;;;;;;;;;;;;;5072691;28;19953;-81
2022/01/23 20:28:20;;;;;;;;;;;;;;;;;;5071004;28;20343;-81
2022/01/23 20:31:01;;;;;;;;;;;;;;;;;;5029171;28;20452;-82
2022/01/23 20:33:27;;;;;;;;;;;;;;;;;;5028645;28;19926;-81
2022/01/23 20:35:53;;;;;;;;;;;;;;;;;;5017842;28;19921;-81
2022/01/23 20:38:20;;;;;;;;;;;;;;;;;;5014774;28;20010;-81
2022/01/23 20:41:06;;;;;;;;;;;;;;;;;;5013813;28;19932;-82